AAL158 KBOS-TXKF
Flight info
| Callsign | AAL158 |
|---|---|
| Flight time | 1h 49m |
| Altitude | 35000 |
| Route | BRUWN7 BRUWN DCT BORQE Y578 KAYYT/M078F350 L462 ANVER MOMOM1 |
| Aircraft | A321/M-SDE3FGHIRWY/LB1 |
Departure
| Time | 2026-05-04 23:36 |
|---|---|
| Airport | Boston Logan International Airport (KBOS) |
Arrival
| Time | 2026-05-05 01:25 |
|---|---|
| Airport | L.F. Wade International Airport (TXKF) |
| Time | Latitude | Longitude | Altitude | Speed | Heading |
|---|---|---|---|---|---|
| 2026-05-04 22:44 | 42.37070 | -71.01867 | 31 ft | 0 kts | 211° |
| 2026-05-04 23:20 | 42.37071 | -71.01866 | 30 ft | 2 kts | 211° |
| 2026-05-04 23:20 | 42.37093 | -71.01849 | 31 ft | 4 kts | 206° |
| 2026-05-04 23:21 | 42.37118 | -71.01834 | 30 ft | 4 kts | 199° |
| 2026-05-04 23:21 | 42.37144 | -71.01826 | 29 ft | 4 kts | 178° |
| 2026-05-04 23:21 | 42.37164 | -71.01834 | 30 ft | 2 kts | 124° |
| 2026-05-04 23:21 | 42.37165 | -71.01835 | 30 ft | 0 kts | 123° |
| 2026-05-04 23:25 | 42.37162 | -71.01829 | 30 ft | 2 kts | 123° |
| 2026-05-04 23:25 | 42.37147 | -71.01798 | 29 ft | 6 kts | 123° |
| 2026-05-04 23:25 | 42.37134 | -71.01732 | 26 ft | 9 kts | 84° |
| 2026-05-04 23:26 | 42.37143 | -71.01648 | 28 ft | 10 kts | 91° |
| 2026-05-04 23:26 | 42.37101 | -71.01563 | 26 ft | 13 kts | 134° |
| 2026-05-04 23:26 | 42.37032 | -71.01471 | 28 ft | 14 kts | 135° |
| 2026-05-04 23:26 | 42.36960 | -71.01375 | 26 ft | 15 kts | 135° |
| 2026-05-04 23:27 | 42.36909 | -71.01263 | 26 ft | 12 kts | 81° |
| 2026-05-04 23:27 | 42.36946 | -71.01160 | 29 ft | 12 kts | 56° |
| 2026-05-04 23:27 | 42.37016 | -71.01094 | 27 ft | 13 kts | 26° |
| 2026-05-04 23:27 | 42.37099 | -71.01040 | 26 ft | 13 kts | 26° |
| 2026-05-04 23:28 | 42.37185 | -71.00983 | 26 ft | 14 kts | 26° |
| 2026-05-04 23:28 | 42.37274 | -71.00924 | 27 ft | 15 kts | 26° |
| 2026-05-04 23:28 | 42.37369 | -71.00874 | 27 ft | 15 kts | 19° |
| 2026-05-04 23:28 | 42.37469 | -71.00826 | 27 ft | 15 kts | 19° |
| 2026-05-04 23:29 | 42.37571 | -71.00777 | 26 ft | 16 kts | 19° |
| 2026-05-04 23:29 | 42.37675 | -71.00727 | 25 ft | 16 kts | 19° |
| 2026-05-04 23:29 | 42.37777 | -71.00678 | 27 ft | 8 kts | 20° |
| 2026-05-04 23:29 | 42.37805 | -71.00663 | 28 ft | 3 kts | 22° |
| 2026-05-04 23:30 | 42.37822 | -71.00648 | 27 ft | 1 kts | 43° |
| 2026-05-04 23:30 | 42.37828 | -71.00638 | 27 ft | 2 kts | 49° |
| 2026-05-04 23:30 | 42.37832 | -71.00630 | 26 ft | 0 kts | 60° |
| 2026-05-04 23:31 | 42.37833 | -71.00629 | 27 ft | 1 kts | 60° |
| 2026-05-04 23:31 | 42.37835 | -71.00620 | 28 ft | 1 kts | 68° |
| 2026-05-04 23:32 | 42.37837 | -71.00604 | 28 ft | 2 kts | 82° |
| 2026-05-04 23:32 | 42.37836 | -71.00582 | 27 ft | 3 kts | 99° |
| 2026-05-04 23:32 | 42.37832 | -71.00570 | 28 ft | 1 kts | 113° |
| 2026-05-04 23:32 | 42.37825 | -71.00549 | 28 ft | 4 kts | 112° |
| 2026-05-04 23:33 | 42.37807 | -71.00498 | 29 ft | 8 kts | 128° |
| 2026-05-04 23:33 | 42.37753 | -71.00492 | 27 ft | 9 kts | 200° |
| 2026-05-04 23:33 | 42.37747 | -71.00496 | 26 ft | 0 kts | 202° |
| 2026-05-04 23:35 | 42.37648 | -71.00546 | 25 ft | 48 kts | 200° |
| 2026-05-04 23:35 | 42.37108 | -71.00804 | 26 ft | 114 kts | 199° |
| 2026-05-04 23:35 | 42.36194 | -71.01247 | 50 ft | 164 kts | 200° |
| 2026-05-04 23:36 | 42.35113 | -71.01732 | 668 ft | 164 kts | 193° |
| 2026-05-04 23:36 | 42.33992 | -71.01668 | 1321 ft | 166 kts | 152° |
| 2026-05-04 23:36 | 42.33171 | -71.00587 | 1955 ft | 169 kts | 124° |
| 2026-05-04 23:36 | 42.32463 | -70.99228 | 2310 ft | 186 kts | 127° |
| 2026-05-04 23:37 | 42.31663 | -70.97740 | 2437 ft | 207 kts | 121° |
| 2026-05-04 23:37 | 42.31225 | -70.95824 | 2700 ft | 224 kts | 92° |
| 2026-05-04 23:37 | 42.31433 | -70.93657 | 2932 ft | 246 kts | 78° |
| 2026-05-04 23:37 | 42.31781 | -70.91305 | 3318 ft | 261 kts | 79° |
| 2026-05-04 23:38 | 42.32128 | -70.88870 | 3966 ft | 266 kts | 79° |
| 2026-05-04 23:38 | 42.32472 | -70.86435 | 4650 ft | 269 kts | 79° |
| 2026-05-04 23:38 | 42.32822 | -70.83945 | 5338 ft | 271 kts | 79° |
| 2026-05-04 23:38 | 42.33048 | -70.81405 | 5989 ft | 275 kts | 91° |
| 2026-05-04 23:39 | 42.32797 | -70.78840 | 6655 ft | 277 kts | 106° |
| 2026-05-04 23:39 | 42.31991 | -70.76480 | 7288 ft | 279 kts | 127° |
| 2026-05-04 23:39 | 42.30565 | -70.74704 | 7918 ft | 281 kts | 150° |
| 2026-05-04 23:39 | 42.28856 | -70.73401 | 8542 ft | 284 kts | 152° |
| 2026-05-04 23:40 | 42.27117 | -70.72109 | 9180 ft | 287 kts | 152° |
| 2026-05-04 23:40 | 42.25360 | -70.70813 | 9811 ft | 289 kts | 152° |
| 2026-05-04 23:40 | 42.23606 | -70.69517 | 10354 ft | 295 kts | 152° |
| 2026-05-04 23:40 | 42.21739 | -70.68132 | 10489 ft | 317 kts | 151° |
| 2026-05-04 23:41 | 42.19759 | -70.66659 | 10755 ft | 331 kts | 151° |
| 2026-05-04 23:41 | 42.17726 | -70.65150 | 11287 ft | 336 kts | 151° |
| 2026-05-04 23:41 | 42.15667 | -70.63622 | 11874 ft | 339 kts | 151° |
| 2026-05-04 23:41 | 42.13594 | -70.62085 | 12458 ft | 342 kts | 151° |
| 2026-05-04 23:42 | 42.11499 | -70.60534 | 13021 ft | 345 kts | 151° |
| 2026-05-04 23:42 | 42.09390 | -70.58974 | 13594 ft | 347 kts | 151° |
| 2026-05-04 23:42 | 42.07261 | -70.57400 | 14044 ft | 351 kts | 151° |
| 2026-05-04 23:42 | 42.05119 | -70.55816 | 14161 ft | 351 kts | 151° |
| 2026-05-04 23:43 | 42.02978 | -70.54234 | 14183 ft | 351 kts | 152° |
| 2026-05-04 23:43 | 42.00838 | -70.52659 | 14184 ft | 351 kts | 152° |
| 2026-05-04 23:43 | 41.98697 | -70.51082 | 14184 ft | 351 kts | 152° |
| 2026-05-04 23:43 | 41.96555 | -70.49503 | 14184 ft | 351 kts | 152° |
| 2026-05-04 23:44 | 41.94412 | -70.47927 | 14184 ft | 351 kts | 152° |
| 2026-05-04 23:44 | 41.92302 | -70.46374 | 14184 ft | 351 kts | 152° |
| 2026-05-04 23:44 | 41.90159 | -70.44797 | 14184 ft | 351 kts | 152° |
| 2026-05-04 23:44 | 41.88019 | -70.43223 | 14184 ft | 351 kts | 152° |
| 2026-05-04 23:45 | 41.85876 | -70.41650 | 14184 ft | 351 kts | 152° |
| 2026-05-04 23:45 | 41.83734 | -70.40079 | 14184 ft | 351 kts | 152° |
| 2026-05-04 23:45 | 41.81591 | -70.38505 | 14184 ft | 351 kts | 152° |
| 2026-05-04 23:45 | 41.79452 | -70.36935 | 14184 ft | 351 kts | 152° |
| 2026-05-04 23:46 | 41.77311 | -70.35369 | 14184 ft | 351 kts | 152° |
| 2026-05-04 23:46 | 41.75168 | -70.33803 | 14184 ft | 351 kts | 152° |
| 2026-05-04 23:46 | 41.73055 | -70.32258 | 14184 ft | 351 kts | 152° |
| 2026-05-04 23:46 | 41.70913 | -70.30693 | 14184 ft | 351 kts | 152° |
| 2026-05-04 23:47 | 41.68769 | -70.29129 | 14184 ft | 351 kts | 152° |
| 2026-05-04 23:47 | 41.66625 | -70.27565 | 14184 ft | 351 kts | 152° |
| 2026-05-04 23:47 | 41.64483 | -70.26003 | 14184 ft | 351 kts | 152° |
| 2026-05-04 23:47 | 41.62339 | -70.24441 | 14184 ft | 351 kts | 152° |
| 2026-05-04 23:48 | 41.60217 | -70.22826 | 14183 ft | 351 kts | 146° |
| 2026-05-04 23:48 | 41.58270 | -70.20858 | 14184 ft | 351 kts | 142° |
| 2026-05-04 23:48 | 41.56344 | -70.18849 | 14184 ft | 351 kts | 142° |
| 2026-05-04 23:48 | 41.54416 | -70.16847 | 14184 ft | 351 kts | 142° |
| 2026-05-04 23:49 | 41.52476 | -70.14838 | 14563 ft | 354 kts | 142° |
| 2026-05-04 23:49 | 41.50546 | -70.12846 | 15135 ft | 356 kts | 142° |
| 2026-05-04 23:49 | 41.48581 | -70.10821 | 15684 ft | 359 kts | 142° |
| 2026-05-04 23:49 | 41.46600 | -70.08774 | 16207 ft | 361 kts | 142° |
| 2026-05-04 23:50 | 41.44606 | -70.06710 | 16729 ft | 364 kts | 142° |
| 2026-05-04 23:50 | 41.42597 | -70.04633 | 17225 ft | 367 kts | 142° |
| 2026-05-04 23:50 | 41.40572 | -70.02541 | 17726 ft | 370 kts | 142° |
| 2026-05-04 23:50 | 41.38528 | -70.00436 | 18207 ft | 372 kts | 142° |
| 2026-05-04 23:51 | 41.36470 | -69.98319 | 18681 ft | 375 kts | 142° |
| 2026-05-04 23:51 | 41.34397 | -69.96190 | 19147 ft | 378 kts | 142° |
| 2026-05-04 23:51 | 41.32318 | -69.94052 | 19596 ft | 381 kts | 142° |
| 2026-05-04 23:51 | 41.30218 | -69.91888 | 20059 ft | 383 kts | 142° |
| 2026-05-04 23:52 | 41.28106 | -69.89710 | 20510 ft | 386 kts | 142° |
| 2026-05-04 23:52 | 41.26005 | -69.87548 | 20949 ft | 388 kts | 142° |
| 2026-05-04 23:52 | 41.23862 | -69.85347 | 21384 ft | 391 kts | 142° |
| 2026-05-04 23:52 | 41.21704 | -69.83136 | 21813 ft | 393 kts | 142° |
| 2026-05-04 23:53 | 41.19527 | -69.80910 | 22233 ft | 396 kts | 142° |
| 2026-05-04 23:53 | 41.17339 | -69.78680 | 22650 ft | 398 kts | 142° |
| 2026-05-04 23:53 | 41.15136 | -69.76432 | 23051 ft | 401 kts | 142° |
| 2026-05-04 23:53 | 41.12920 | -69.74169 | 23452 ft | 403 kts | 142° |
| 2026-05-04 23:54 | 41.10693 | -69.71896 | 23823 ft | 405 kts | 142° |
| 2026-05-04 23:54 | 41.08450 | -69.69609 | 24189 ft | 408 kts | 142° |
| 2026-05-04 23:54 | 41.06225 | -69.67343 | 24540 ft | 410 kts | 142° |
| 2026-05-04 23:54 | 41.03959 | -69.65040 | 24884 ft | 412 kts | 142° |
| 2026-05-04 23:55 | 41.01677 | -69.62725 | 25220 ft | 414 kts | 143° |
| 2026-05-04 23:55 | 40.99414 | -69.60350 | 25552 ft | 416 kts | 138° |
| 2026-05-04 23:55 | 40.95428 | -69.54739 | 26176 ft | 420 kts | 132° |
| 2026-05-04 23:56 | 40.93454 | -69.51877 | 26481 ft | 422 kts | 133° |
| 2026-05-04 23:56 | 40.91464 | -69.49003 | 26780 ft | 424 kts | 133° |
| 2026-05-04 23:56 | 40.89464 | -69.46123 | 27072 ft | 426 kts | 133° |
| 2026-05-04 23:56 | 40.87452 | -69.43230 | 27358 ft | 428 kts | 133° |
| 2026-05-04 23:57 | 40.85433 | -69.40328 | 27653 ft | 430 kts | 133° |
| 2026-05-04 23:57 | 40.83430 | -69.37448 | 27925 ft | 432 kts | 133° |
| 2026-05-04 23:57 | 40.81366 | -69.34480 | 28198 ft | 434 kts | 133° |
| 2026-05-04 23:57 | 40.79350 | -69.31582 | 28463 ft | 436 kts | 133° |
| 2026-05-04 23:58 | 40.77294 | -69.28633 | 28727 ft | 437 kts | 133° |
| 2026-05-04 23:58 | 40.75232 | -69.25676 | 28990 ft | 439 kts | 133° |
| 2026-05-04 23:58 | 40.73158 | -69.22709 | 29238 ft | 441 kts | 133° |
| 2026-05-04 23:58 | 40.71073 | -69.19730 | 29485 ft | 443 kts | 133° |
| 2026-05-04 23:59 | 40.68983 | -69.16749 | 29724 ft | 444 kts | 133° |
| 2026-05-04 23:59 | 40.66880 | -69.13755 | 29962 ft | 446 kts | 133° |
| 2026-05-04 23:59 | 40.64770 | -69.10752 | 30191 ft | 447 kts | 133° |
| 2026-05-04 23:59 | 40.62653 | -69.07742 | 30414 ft | 449 kts | 133° |
| 2026-05-05 00:00 | 40.60529 | -69.04719 | 30633 ft | 450 kts | 133° |
| 2026-05-05 00:00 | 40.56256 | -68.98647 | 31081 ft | 453 kts | 133° |
| 2026-05-05 00:00 | 40.54137 | -68.95644 | 31281 ft | 455 kts | 133° |
| 2026-05-05 00:01 | 40.51981 | -68.92591 | 31499 ft | 456 kts | 133° |
| 2026-05-05 00:01 | 40.49820 | -68.89535 | 31769 ft | 456 kts | 133° |
| 2026-05-05 00:01 | 40.47661 | -68.86481 | 32078 ft | 455 kts | 133° |
| 2026-05-05 00:01 | 40.45507 | -68.83436 | 32374 ft | 455 kts | 133° |
| 2026-05-05 00:02 | 40.43356 | -68.80401 | 32654 ft | 454 kts | 133° |
| 2026-05-05 00:02 | 40.41205 | -68.77371 | 32927 ft | 453 kts | 133° |
| 2026-05-05 00:02 | 40.39056 | -68.74346 | 33195 ft | 453 kts | 133° |
| 2026-05-05 00:02 | 40.36937 | -68.71366 | 33453 ft | 452 kts | 133° |
| 2026-05-05 00:03 | 40.34789 | -68.68349 | 33710 ft | 452 kts | 133° |
| 2026-05-05 00:03 | 40.32646 | -68.65345 | 33967 ft | 451 kts | 133° |
| 2026-05-05 00:03 | 40.30503 | -68.62343 | 34218 ft | 451 kts | 133° |
| 2026-05-05 00:03 | 40.28362 | -68.59341 | 34442 ft | 450 kts | 133° |
| 2026-05-05 00:04 | 40.26226 | -68.56347 | 34686 ft | 450 kts | 133° |
| 2026-05-05 00:04 | 40.24091 | -68.53355 | 34910 ft | 450 kts | 133° |
| 2026-05-05 00:04 | 40.21957 | -68.50371 | 35008 ft | 446 kts | 133° |
| 2026-05-05 00:05 | 40.17792 | -68.44566 | 35014 ft | 438 kts | 133° |
| 2026-05-05 00:05 | 40.13625 | -68.38768 | 35013 ft | 437 kts | 133° |
| 2026-05-05 00:06 | 40.09456 | -68.32983 | 35003 ft | 437 kts | 133° |
| 2026-05-05 00:06 | 40.05296 | -68.27202 | 35004 ft | 437 kts | 133° |
| 2026-05-05 00:07 | 40.01154 | -68.21468 | 35010 ft | 437 kts | 133° |
| 2026-05-05 00:07 | 39.96976 | -68.15704 | 35020 ft | 437 kts | 133° |
| 2026-05-05 00:08 | 39.92274 | -68.10739 | 35018 ft | 436 kts | 151° |
| 2026-05-05 00:08 | 39.86709 | -68.07614 | 35013 ft | 436 kts | 159° |
| 2026-05-05 00:09 | 39.81068 | -68.04709 | 35019 ft | 436 kts | 159° |
| 2026-05-05 00:09 | 39.75463 | -68.01822 | 35021 ft | 437 kts | 159° |
| 2026-05-05 00:10 | 39.69808 | -67.98924 | 35017 ft | 437 kts | 159° |
| 2026-05-05 00:10 | 39.64162 | -67.96012 | 35022 ft | 437 kts | 159° |
| 2026-05-05 00:11 | 39.58511 | -67.93106 | 35021 ft | 437 kts | 159° |
| 2026-05-05 00:11 | 39.52892 | -67.90239 | 35022 ft | 437 kts | 159° |
| 2026-05-05 00:12 | 39.47236 | -67.87359 | 35024 ft | 437 kts | 159° |
| 2026-05-05 00:12 | 39.41580 | -67.84481 | 35024 ft | 437 kts | 159° |
| 2026-05-05 00:13 | 39.35925 | -67.81599 | 35025 ft | 437 kts | 159° |
| 2026-05-05 00:13 | 39.30268 | -67.78730 | 35025 ft | 437 kts | 159° |
| 2026-05-05 00:14 | 39.24650 | -67.75890 | 35025 ft | 437 kts | 159° |
| 2026-05-05 00:14 | 39.18991 | -67.73031 | 35026 ft | 437 kts | 159° |
| 2026-05-05 00:15 | 39.13334 | -67.70168 | 35025 ft | 437 kts | 159° |
| 2026-05-05 00:15 | 39.07674 | -67.67318 | 35025 ft | 437 kts | 159° |
| 2026-05-05 00:16 | 39.02055 | -67.64490 | 35025 ft | 437 kts | 159° |
| 2026-05-05 00:16 | 38.96397 | -67.61647 | 35025 ft | 437 kts | 159° |
| 2026-05-05 00:17 | 38.90735 | -67.58813 | 35025 ft | 437 kts | 159° |
| 2026-05-05 00:17 | 38.85086 | -67.55945 | 35025 ft | 437 kts | 158° |
| 2026-05-05 00:18 | 38.79542 | -67.52898 | 35025 ft | 437 kts | 156° |
| 2026-05-05 00:18 | 38.73976 | -67.49777 | 35025 ft | 437 kts | 156° |
| 2026-05-05 00:19 | 38.68399 | -67.46704 | 35025 ft | 436 kts | 157° |
| 2026-05-05 00:19 | 38.62808 | -67.43667 | 35025 ft | 436 kts | 157° |
| 2026-05-05 00:20 | 38.57216 | -67.40637 | 35025 ft | 436 kts | 157° |
| 2026-05-05 00:20 | 38.51663 | -67.37638 | 35026 ft | 436 kts | 157° |
| 2026-05-05 00:21 | 38.46074 | -67.34606 | 35026 ft | 436 kts | 157° |
| 2026-05-05 00:21 | 38.40488 | -67.31581 | 35026 ft | 436 kts | 157° |
| 2026-05-05 00:22 | 38.34894 | -67.28562 | 35026 ft | 436 kts | 157° |
| 2026-05-05 00:22 | 38.29306 | -67.25550 | 35026 ft | 436 kts | 157° |
| 2026-05-05 00:23 | 38.23754 | -67.22566 | 35027 ft | 436 kts | 157° |
| 2026-05-05 00:23 | 38.18162 | -67.19564 | 35025 ft | 436 kts | 157° |
| 2026-05-05 00:24 | 38.12573 | -67.16558 | 35025 ft | 436 kts | 157° |
| 2026-05-05 00:24 | 38.06983 | -67.13568 | 35025 ft | 436 kts | 157° |
| 2026-05-05 00:25 | 38.01428 | -67.10596 | 35025 ft | 436 kts | 157° |
| 2026-05-05 00:25 | 37.95839 | -67.07614 | 35025 ft | 436 kts | 157° |
| 2026-05-05 00:26 | 37.90242 | -67.04633 | 35025 ft | 436 kts | 158° |
| 2026-05-05 00:26 | 37.84650 | -67.01665 | 35025 ft | 436 kts | 157° |
| 2026-05-05 00:27 | 37.79096 | -66.98718 | 35025 ft | 436 kts | 157° |
| 2026-05-05 00:27 | 37.73504 | -66.95750 | 35026 ft | 436 kts | 157° |
| 2026-05-05 00:28 | 37.67910 | -66.92785 | 35025 ft | 436 kts | 157° |
| 2026-05-05 00:28 | 37.62319 | -66.89833 | 35025 ft | 436 kts | 158° |
| 2026-05-05 00:29 | 37.56724 | -66.86884 | 35025 ft | 436 kts | 158° |
| 2026-05-05 00:29 | 37.51168 | -66.83952 | 35025 ft | 436 kts | 158° |
| 2026-05-05 00:30 | 37.45576 | -66.81010 | 35025 ft | 436 kts | 158° |
| 2026-05-05 00:30 | 37.39980 | -66.78076 | 35025 ft | 436 kts | 158° |
| 2026-05-05 00:31 | 37.34383 | -66.75146 | 35025 ft | 436 kts | 158° |
| 2026-05-05 00:31 | 37.28829 | -66.72235 | 35025 ft | 436 kts | 158° |
| 2026-05-05 00:32 | 37.23232 | -66.69316 | 35025 ft | 436 kts | 158° |
| 2026-05-05 00:32 | 37.17636 | -66.66397 | 35025 ft | 435 kts | 158° |
| 2026-05-05 00:33 | 37.12038 | -66.63484 | 35025 ft | 435 kts | 158° |
| 2026-05-05 00:33 | 37.06446 | -66.60571 | 35025 ft | 435 kts | 158° |
| 2026-05-05 00:34 | 37.00890 | -66.57684 | 35025 ft | 435 kts | 158° |
| 2026-05-05 00:34 | 36.95291 | -66.54788 | 35025 ft | 435 kts | 158° |
| 2026-05-05 00:35 | 36.89693 | -66.51895 | 35026 ft | 435 kts | 158° |
| 2026-05-05 00:35 | 36.84097 | -66.49007 | 35025 ft | 435 kts | 158° |
| 2026-05-05 00:36 | 36.78539 | -66.46129 | 35025 ft | 435 kts | 158° |
| 2026-05-05 00:36 | 36.73002 | -66.43274 | 35025 ft | 435 kts | 158° |
| 2026-05-05 00:37 | 36.67410 | -66.40399 | 35025 ft | 435 kts | 158° |
| 2026-05-05 00:37 | 36.61810 | -66.37539 | 35025 ft | 435 kts | 158° |
| 2026-05-05 00:38 | 36.56212 | -66.34668 | 35025 ft | 435 kts | 158° |
| 2026-05-05 00:38 | 36.50654 | -66.31821 | 35026 ft | 435 kts | 158° |
| 2026-05-05 00:39 | 36.45053 | -66.28963 | 35025 ft | 435 kts | 158° |
| 2026-05-05 00:39 | 36.39452 | -66.26110 | 35025 ft | 435 kts | 158° |
| 2026-05-05 00:40 | 36.33858 | -66.23254 | 35025 ft | 435 kts | 158° |
| 2026-05-05 00:40 | 36.28292 | -66.20433 | 35025 ft | 435 kts | 158° |
| 2026-05-05 00:41 | 36.22697 | -66.17581 | 35025 ft | 435 kts | 158° |
| 2026-05-05 00:41 | 36.17098 | -66.14744 | 35025 ft | 435 kts | 158° |
| 2026-05-05 00:42 | 36.11500 | -66.11908 | 35025 ft | 435 kts | 158° |
| 2026-05-05 00:42 | 36.05898 | -66.09077 | 35025 ft | 435 kts | 158° |
| 2026-05-05 00:43 | 36.00335 | -66.06279 | 35025 ft | 435 kts | 158° |
| 2026-05-05 00:43 | 35.94738 | -66.03451 | 35025 ft | 435 kts | 158° |
| 2026-05-05 00:44 | 35.89138 | -66.00636 | 35025 ft | 435 kts | 158° |
| 2026-05-05 00:44 | 35.83536 | -65.97834 | 35025 ft | 434 kts | 158° |
| 2026-05-05 00:45 | 35.77971 | -65.95047 | 35025 ft | 434 kts | 158° |
| 2026-05-05 00:45 | 35.72373 | -65.92239 | 35025 ft | 434 kts | 158° |
| 2026-05-05 00:46 | 35.66776 | -65.89436 | 35025 ft | 434 kts | 158° |
| 2026-05-05 00:46 | 35.61176 | -65.86641 | 35025 ft | 434 kts | 158° |
| 2026-05-05 00:47 | 35.55577 | -65.83842 | 35025 ft | 434 kts | 158° |
| 2026-05-05 00:47 | 35.50019 | -65.81070 | 35026 ft | 434 kts | 158° |
| 2026-05-05 00:48 | 35.44415 | -65.78294 | 35025 ft | 434 kts | 158° |
| 2026-05-05 00:48 | 35.38818 | -65.75517 | 35025 ft | 434 kts | 158° |
| 2026-05-05 00:49 | 35.33217 | -65.72740 | 35025 ft | 434 kts | 158° |
| 2026-05-05 00:49 | 35.27657 | -65.69989 | 35025 ft | 434 kts | 158° |
| 2026-05-05 00:50 | 35.21853 | -65.68067 | 35024 ft | 433 kts | 171° |
| 2026-05-05 00:50 | 35.15909 | -65.66845 | 35023 ft | 433 kts | 171° |
| 2026-05-05 00:51 | 35.09963 | -65.65618 | 35023 ft | 433 kts | 171° |
| 2026-05-05 00:51 | 35.04059 | -65.64399 | 35023 ft | 433 kts | 171° |
| 2026-05-05 00:52 | 34.98115 | -65.63158 | 35024 ft | 433 kts | 170° |
| 2026-05-05 00:52 | 34.92173 | -65.61917 | 35024 ft | 433 kts | 171° |
| 2026-05-05 00:53 | 34.86223 | -65.60693 | 35025 ft | 433 kts | 171° |
| 2026-05-05 00:53 | 34.80319 | -65.59489 | 35025 ft | 433 kts | 171° |
| 2026-05-05 00:54 | 34.74377 | -65.58268 | 35025 ft | 433 kts | 171° |
| 2026-05-05 00:54 | 34.68433 | -65.57040 | 35025 ft | 433 kts | 171° |
| 2026-05-05 00:55 | 34.62488 | -65.55828 | 35025 ft | 433 kts | 171° |
| 2026-05-05 00:55 | 34.56586 | -65.54628 | 35025 ft | 433 kts | 171° |
| 2026-05-05 00:56 | 34.50643 | -65.53411 | 35025 ft | 433 kts | 171° |
| 2026-05-05 00:56 | 34.44704 | -65.52193 | 35025 ft | 433 kts | 171° |
| 2026-05-05 00:57 | 34.38757 | -65.50982 | 34705 ft | 433 kts | 171° |
| 2026-05-05 00:57 | 34.35828 | -65.50386 | 34457 ft | 433 kts | 171° |
| 2026-05-05 00:57 | 34.32860 | -65.49782 | 34210 ft | 432 kts | 171° |
| 2026-05-05 00:57 | 34.29906 | -65.49182 | 33741 ft | 430 kts | 171° |
| 2026-05-05 00:58 | 34.26967 | -65.48586 | 33243 ft | 428 kts | 171° |
| 2026-05-05 00:58 | 34.24037 | -65.47989 | 32768 ft | 425 kts | 171° |
| 2026-05-05 00:58 | 34.21133 | -65.47395 | 32292 ft | 422 kts | 171° |
| 2026-05-05 00:58 | 34.18243 | -65.46804 | 31816 ft | 420 kts | 171° |
| 2026-05-05 00:59 | 34.15369 | -65.46222 | 31340 ft | 417 kts | 171° |
| 2026-05-05 00:59 | 34.12513 | -65.45644 | 30862 ft | 415 kts | 171° |
| 2026-05-05 00:59 | 34.09675 | -65.45069 | 30401 ft | 412 kts | 171° |
| 2026-05-05 00:59 | 34.06891 | -65.44504 | 29943 ft | 410 kts | 171° |
| 2026-05-05 01:00 | 34.04091 | -65.43935 | 29491 ft | 407 kts | 171° |
| 2026-05-05 01:00 | 34.01306 | -65.43376 | 29031 ft | 404 kts | 171° |
| 2026-05-05 01:00 | 33.98538 | -65.42823 | 28593 ft | 402 kts | 171° |
| 2026-05-05 01:00 | 33.95789 | -65.42274 | 28151 ft | 399 kts | 171° |
| 2026-05-05 01:01 | 33.93058 | -65.41728 | 27724 ft | 397 kts | 171° |
| 2026-05-05 01:01 | 33.90346 | -65.41183 | 27310 ft | 394 kts | 171° |
| 2026-05-05 01:01 | 33.87649 | -65.40640 | 26895 ft | 392 kts | 171° |
| 2026-05-05 01:01 | 33.84968 | -65.40098 | 26487 ft | 390 kts | 171° |
| 2026-05-05 01:02 | 33.82339 | -65.39566 | 26087 ft | 387 kts | 171° |
| 2026-05-05 01:02 | 33.79689 | -65.39029 | 25674 ft | 385 kts | 171° |
| 2026-05-05 01:02 | 33.77056 | -65.38499 | 25283 ft | 382 kts | 171° |
| 2026-05-05 01:02 | 33.74440 | -65.37975 | 24878 ft | 380 kts | 171° |
| 2026-05-05 01:03 | 33.71842 | -65.37456 | 24473 ft | 377 kts | 171° |
| 2026-05-05 01:03 | 33.69264 | -65.36941 | 24080 ft | 374 kts | 171° |
| 2026-05-05 01:03 | 33.66700 | -65.36436 | 23660 ft | 372 kts | 171° |
| 2026-05-05 01:03 | 33.64157 | -65.35937 | 23247 ft | 369 kts | 171° |
| 2026-05-05 01:04 | 33.61631 | -65.35444 | 22837 ft | 366 kts | 171° |
| 2026-05-05 01:04 | 33.56669 | -65.34468 | 22012 ft | 361 kts | 171° |
| 2026-05-05 01:04 | 33.54197 | -65.33980 | 21593 ft | 359 kts | 171° |
| 2026-05-05 01:05 | 33.51744 | -65.33497 | 21163 ft | 356 kts | 171° |
| 2026-05-05 01:05 | 33.49307 | -65.33017 | 20758 ft | 354 kts | 171° |
| 2026-05-05 01:05 | 33.46884 | -65.32540 | 20343 ft | 351 kts | 171° |
| 2026-05-05 01:05 | 33.44480 | -65.32070 | 19928 ft | 349 kts | 171° |
| 2026-05-05 01:06 | 33.42897 | -65.31760 | 19651 ft | 347 kts | 171° |
| 2026-05-05 01:06 | 33.39755 | -65.31143 | 19110 ft | 344 kts | 171° |
| 2026-05-05 01:06 | 33.37406 | -65.30682 | 18698 ft | 341 kts | 171° |
| 2026-05-05 01:06 | 33.35072 | -65.30227 | 18298 ft | 339 kts | 171° |
| 2026-05-05 01:07 | 33.32752 | -65.29774 | 17895 ft | 336 kts | 171° |
| 2026-05-05 01:07 | 33.30452 | -65.29326 | 17472 ft | 334 kts | 171° |
| 2026-05-05 01:07 | 33.28926 | -65.29027 | 17108 ft | 336 kts | 171° |
| 2026-05-05 01:07 | 33.26623 | -65.28576 | 16697 ft | 334 kts | 171° |
| 2026-05-05 01:08 | 33.24339 | -65.28128 | 16298 ft | 332 kts | 171° |
| 2026-05-05 01:08 | 33.22070 | -65.27683 | 15897 ft | 329 kts | 171° |
| 2026-05-05 01:08 | 33.19820 | -65.27243 | 15511 ft | 327 kts | 171° |
| 2026-05-05 01:08 | 33.16864 | -65.26666 | 14997 ft | 323 kts | 171° |
| 2026-05-05 01:09 | 33.14650 | -65.26235 | 14605 ft | 321 kts | 171° |
| 2026-05-05 01:09 | 33.13165 | -65.25947 | 14345 ft | 320 kts | 171° |
| 2026-05-05 01:09 | 33.11007 | -65.25529 | 13967 ft | 317 kts | 171° |
| 2026-05-05 01:09 | 33.08834 | -65.25107 | 13596 ft | 315 kts | 171° |
| 2026-05-05 01:10 | 33.06677 | -65.24681 | 13219 ft | 313 kts | 169° |
| 2026-05-05 01:10 | 33.04595 | -65.23959 | 12842 ft | 311 kts | 161° |
| 2026-05-05 01:10 | 33.02560 | -65.23122 | 12472 ft | 309 kts | 161° |
| 2026-05-05 01:10 | 33.00535 | -65.22295 | 12102 ft | 306 kts | 161° |
| 2026-05-05 01:11 | 32.98524 | -65.21475 | 11736 ft | 304 kts | 161° |
| 2026-05-05 01:11 | 32.96528 | -65.20664 | 11373 ft | 302 kts | 161° |
| 2026-05-05 01:11 | 32.94568 | -65.19868 | 11015 ft | 300 kts | 161° |
| 2026-05-05 01:11 | 32.92597 | -65.19070 | 10651 ft | 298 kts | 161° |
| 2026-05-05 01:12 | 32.90638 | -65.18276 | 10290 ft | 296 kts | 161° |
| 2026-05-05 01:12 | 32.88694 | -65.17486 | 9986 ft | 293 kts | 161° |
| 2026-05-05 01:12 | 32.86787 | -65.16713 | 9907 ft | 289 kts | 161° |
| 2026-05-05 01:12 | 32.84878 | -65.15940 | 9689 ft | 290 kts | 161° |
| 2026-05-05 01:13 | 32.82979 | -65.15170 | 9396 ft | 287 kts | 161° |
| 2026-05-05 01:13 | 32.81091 | -65.14406 | 9119 ft | 286 kts | 161° |
| 2026-05-05 01:13 | 32.79212 | -65.13646 | 8827 ft | 285 kts | 161° |
| 2026-05-05 01:13 | 32.77366 | -65.12896 | 8560 ft | 283 kts | 161° |
| 2026-05-05 01:14 | 32.75503 | -65.12140 | 8290 ft | 282 kts | 161° |
| 2026-05-05 01:14 | 32.73649 | -65.11389 | 8016 ft | 281 kts | 161° |
| 2026-05-05 01:14 | 32.71799 | -65.10639 | 7742 ft | 280 kts | 161° |
| 2026-05-05 01:14 | 32.69960 | -65.09894 | 7468 ft | 279 kts | 161° |
| 2026-05-05 01:15 | 32.68126 | -65.09154 | 7201 ft | 278 kts | 161° |
| 2026-05-05 01:15 | 32.66299 | -65.08417 | 6940 ft | 277 kts | 161° |
| 2026-05-05 01:15 | 32.64479 | -65.07683 | 6663 ft | 276 kts | 161° |
| 2026-05-05 01:15 | 32.62669 | -65.06953 | 6399 ft | 275 kts | 161° |
| 2026-05-05 01:16 | 32.60887 | -65.06236 | 6131 ft | 274 kts | 161° |
| 2026-05-05 01:16 | 32.59089 | -65.05512 | 5869 ft | 271 kts | 161° |
| 2026-05-05 01:16 | 32.57347 | -65.04809 | 5729 ft | 257 kts | 161° |
| 2026-05-05 01:16 | 32.55710 | -65.04148 | 5603 ft | 240 kts | 161° |
| 2026-05-05 01:17 | 32.54167 | -65.03524 | 5358 ft | 230 kts | 161° |
| 2026-05-05 01:17 | 32.52666 | -65.02921 | 4984 ft | 226 kts | 162° |
| 2026-05-05 01:17 | 32.51175 | -65.02324 | 4718 ft | 226 kts | 162° |
| 2026-05-05 01:17 | 32.49683 | -65.01727 | 4494 ft | 226 kts | 162° |
| 2026-05-05 01:18 | 32.48197 | -65.01129 | 4396 ft | 226 kts | 161° |
| 2026-05-05 01:18 | 32.46731 | -65.00538 | 4331 ft | 225 kts | 161° |
| 2026-05-05 01:18 | 32.45258 | -64.99916 | 4205 ft | 225 kts | 155° |
| 2026-05-05 01:18 | 32.44028 | -64.98802 | 4091 ft | 224 kts | 129° |
| 2026-05-05 01:19 | 32.43312 | -64.97195 | 3750 ft | 222 kts | 104° |
| 2026-05-05 01:19 | 32.43167 | -64.95352 | 3185 ft | 230 kts | 91° |
| 2026-05-05 01:19 | 32.42872 | -64.93462 | 2559 ft | 237 kts | 106° |
| 2026-05-05 01:19 | 32.42391 | -64.91595 | 1903 ft | 237 kts | 108° |
| 2026-05-05 01:20 | 32.41894 | -64.89766 | 1536 ft | 222 kts | 108° |
| 2026-05-05 01:20 | 32.41452 | -64.88133 | 1564 ft | 200 kts | 108° |
| 2026-05-05 01:20 | 32.41058 | -64.86653 | 1559 ft | 178 kts | 108° |
| 2026-05-05 01:20 | 32.40708 | -64.85344 | 1499 ft | 159 kts | 108° |
| 2026-05-05 01:21 | 32.40382 | -64.84121 | 1471 ft | 154 kts | 107° |
| 2026-05-05 01:21 | 32.40065 | -64.82919 | 1445 ft | 152 kts | 107° |
| 2026-05-05 01:21 | 32.39754 | -64.81726 | 1413 ft | 152 kts | 107° |
| 2026-05-05 01:21 | 32.39445 | -64.80539 | 1403 ft | 150 kts | 107° |
| 2026-05-05 01:22 | 32.39141 | -64.79372 | 1360 ft | 147 kts | 107° |
| 2026-05-05 01:22 | 32.38842 | -64.78218 | 1325 ft | 146 kts | 107° |
| 2026-05-05 01:22 | 32.38556 | -64.77083 | 1280 ft | 146 kts | 107° |
| 2026-05-05 01:22 | 32.38268 | -64.75932 | 1148 ft | 146 kts | 109° |
| 2026-05-05 01:23 | 32.37849 | -64.74846 | 994 ft | 145 kts | 114° |
| 2026-05-05 01:23 | 32.37519 | -64.73719 | 874 ft | 145 kts | 105° |
| 2026-05-05 01:23 | 32.37278 | -64.72583 | 695 ft | 141 kts | 103° |
| 2026-05-05 01:23 | 32.37063 | -64.71460 | 477 ft | 139 kts | 103° |
| 2026-05-05 01:24 | 32.36849 | -64.70359 | 250 ft | 135 kts | 103° |
| 2026-05-05 01:24 | 32.36652 | -64.69279 | 85 ft | 134 kts | 102° |
| 2026-05-05 01:24 | 32.36472 | -64.68258 | 29 ft | 115 kts | 102° |
| 2026-05-05 01:24 | 32.36345 | -64.67532 | 25 ft | 65 kts | 102° |
| 2026-05-05 01:25 | 32.36285 | -64.67155 | 27 ft | 22 kts | 86° |
| 2026-05-05 01:25 | 32.36326 | -64.66987 | 28 ft | 21 kts | 68° |
| 2026-05-05 01:25 | 32.36340 | -64.66948 | 28 ft | 0 kts | 64° |
| 2026-05-05 01:25 | 32.36340 | -64.66947 | 28 ft | 1 kts | 64° |
| 2026-05-05 01:26 | 32.36341 | -64.66946 | 28 ft | 0 kts | 64° |
| 2026-05-05 01:26 | 32.36917 | -64.70705 | 327 ft | 134 kts | 103° |
| 2026-05-05 01:27 | 32.36630 | -64.69149 | 63 ft | 132 kts | 102° |
| 2026-05-05 01:27 | 32.36460 | -64.68191 | 28 ft | 111 kts | 102° |
| 2026-05-05 01:27 | 32.36427 | -64.67977 | 16 ft | 1 kts | 103° |
| 2026-05-05 01:27 | 32.36436 | -64.67974 | 16 ft | 2 kts | 110° |